createdAt,value
2023-04-09T00:01:22.294Z,3.37
2023-04-09T00:03:49.627Z,3.24
2023-04-09T00:06:18.308Z,3.43
2023-04-09T00:08:45.570Z,3.17
2023-04-09T00:11:13.152Z,3.33
2023-04-09T00:13:40.452Z,3.09
2023-04-09T00:16:08.383Z,3.02
2023-04-09T00:18:36.174Z,3.18
2023-04-09T00:21:03.494Z,3.23
2023-04-09T00:23:32.081Z,3.10
2023-04-09T00:25:59.345Z,3.10
2023-04-09T00:28:26.682Z,3.10
2023-04-09T00:30:53.939Z,2.71
2023-04-09T00:33:21.198Z,2.59
2023-04-09T00:35:48.493Z,2.68
2023-04-09T00:38:16.351Z,2.85
2023-04-09T00:40:44.992Z,2.87
2023-04-09T00:43:12.267Z,2.98
2023-04-09T00:45:39.587Z,3.17
2023-04-09T00:48:06.928Z,3.17
2023-04-09T00:50:34.194Z,3.01
2023-04-09T00:53:01.991Z,2.80
2023-04-09T00:55:29.984Z,3.03
2023-04-09T00:57:58.602Z,3.27
2023-04-09T01:00:27.630Z,3.18
2023-04-09T01:02:57.423Z,3.11
2023-04-09T01:05:25.715Z,3.25
2023-04-09T01:07:59.910Z,3.19
2023-04-09T01:10:31.921Z,3.26
2023-04-09T01:13:08.211Z,3.44
2023-04-09T01:15:37.541Z,3.48
2023-04-09T01:18:07.264Z,3.20
2023-04-09T01:20:36.535Z,3.01
2023-04-09T01:23:08.740Z,2.68
2023-04-09T01:25:44.725Z,2.83
2023-04-09T01:28:17.762Z,3.19
2023-04-09T01:30:47.564Z,3.32
2023-04-09T01:33:15.470Z,3.08
2023-04-09T01:35:44.579Z,3.13
2023-04-09T01:38:12.210Z,3.10
2023-04-09T01:40:39.862Z,2.69
2023-04-09T01:43:08.655Z,2.82
2023-04-09T01:45:37.410Z,3.08
2023-04-09T01:48:05.770Z,3.22
2023-04-09T01:50:33.329Z,3.20
2023-04-09T01:53:01.227Z,3.07
2023-04-09T01:55:28.502Z,3.24
2023-04-09T01:57:55.844Z,2.93
2023-04-09T02:00:24.151Z,3.12
2023-04-09T02:02:56.484Z,3.23
2023-04-09T02:05:27.093Z,2.89
2023-04-09T02:07:56.805Z,2.97
2023-04-09T02:10:25.677Z,3.15
2023-04-09T02:12:53.351Z,3.20
2023-04-09T02:15:21.007Z,2.99
2023-04-09T02:17:48.368Z,2.79
2023-04-09T02:20:18.835Z,2.99
2023-04-09T02:22:46.148Z,3.21
2023-04-09T02:25:13.491Z,2.90
2023-04-09T02:27:40.752Z,3.06
2023-04-09T02:30:08.631Z,3.12
2023-04-09T02:32:35.969Z,3.08
2023-04-09T02:35:03.529Z,3.19
2023-04-09T02:37:32.203Z,3.20
2023-04-09T02:39:59.564Z,3.27
2023-04-09T02:42:26.839Z,3.05
2023-04-09T02:44:54.117Z,2.86
2023-04-09T02:47:21.437Z,2.49
2023-04-09T02:49:48.701Z,2.64
2023-04-09T02:52:15.989Z,2.70
2023-04-09T02:54:44.558Z,2.72
2023-04-09T02:57:11.838Z,2.65
2023-04-09T02:59:40.629Z,2.47
2023-04-09T03:02:07.985Z,2.41
2023-04-09T03:04:35.316Z,2.57
2023-04-09T03:07:02.618Z,2.70
2023-04-09T03:09:30.326Z,2.50
2023-04-09T03:11:58.944Z,2.15
2023-04-09T03:14:26.228Z,2.34
2023-04-09T03:16:53.498Z,2.15
2023-04-09T03:19:20.764Z,2.15
2023-04-09T03:21:49.205Z,2.21
2023-04-09T03:24:16.638Z,2.12
2023-04-09T03:26:43.940Z,2.47
2023-04-09T03:29:12.513Z,2.71
2023-04-09T03:31:39.875Z,2.87
2023-04-09T03:34:07.239Z,2.85
2023-04-09T03:36:34.544Z,2.93
2023-04-09T03:39:01.960Z,3.01
2023-04-09T03:41:29.232Z,3.14
2023-04-09T03:43:56.774Z,3.10
2023-04-09T03:46:25.420Z,3.01
2023-04-09T03:48:52.999Z,2.95
2023-04-09T03:51:20.420Z,2.77
2023-04-09T03:53:47.689Z,2.70
2023-04-09T03:56:14.951Z,3.09
2023-04-09T03:58:42.217Z,3.03
2023-04-09T04:01:09.497Z,2.99
2023-04-09T04:03:38.219Z,3.15
2023-04-09T04:06:05.728Z,3.10
2023-04-09T04:08:33.018Z,3.10
2023-04-09T04:11:03.938Z,3.03
2023-04-09T04:13:31.267Z,3.08
2023-04-09T04:15:58.559Z,3.29
2023-04-09T04:18:26.051Z,3.29
2023-04-09T04:20:54.622Z,3.28
2023-04-09T04:23:21.872Z,3.22
2023-04-09T04:25:49.278Z,3.10
2023-04-09T04:28:16.540Z,3.09
2023-04-09T04:30:43.829Z,3.28
2023-04-09T04:33:11.346Z,3.50
2023-04-09T04:35:38.703Z,3.54
2023-04-09T04:38:07.366Z,3.43
2023-04-09T04:40:36.740Z,3.48
2023-04-09T04:43:03.987Z,3.43
2023-04-09T04:45:31.285Z,3.51
2023-04-09T04:47:58.652Z,3.52
2023-04-09T04:50:26.050Z,3.48
2023-04-09T04:52:53.338Z,3.50
2023-04-09T04:55:21.908Z,3.73
2023-04-09T04:57:51.113Z,3.72
2023-04-09T05:00:18.808Z,3.70
2023-04-09T05:02:46.208Z,3.75
2023-04-09T05:05:13.649Z,3.79
2023-04-09T05:07:40.921Z,3.91
2023-04-09T05:10:09.130Z,3.86
2023-04-09T05:12:37.772Z,3.91
2023-04-09T05:15:05.762Z,4.11
2023-04-09T05:17:33.107Z,4.13
2023-04-09T05:20:00.546Z,4.18
2023-04-09T05:22:27.922Z,4.25
2023-04-09T05:24:55.172Z,4.36
2023-04-09T05:27:24.224Z,4.42
2023-04-09T05:29:52.889Z,4.58
2023-04-09T05:32:20.222Z,4.49
2023-04-09T05:34:47.541Z,4.58
2023-04-09T05:37:14.938Z,4.60
2023-04-09T05:39:42.186Z,4.83
2023-04-09T05:42:09.455Z,4.87
2023-04-09T05:44:36.976Z,4.99
2023-04-09T05:47:05.876Z,5.12
2023-04-09T05:49:33.151Z,5.21
2023-04-09T05:52:00.434Z,5.34
2023-04-09T05:54:27.737Z,5.53
2023-04-09T05:56:54.979Z,5.65
2023-04-09T05:59:22.592Z,5.62
2023-04-09T06:01:49.901Z,5.65
2023-04-09T06:04:18.648Z,5.67
2023-04-09T06:06:47.040Z,5.49
2023-04-09T06:09:14.301Z,5.61
2023-04-09T06:11:41.628Z,5.69
2023-04-09T06:14:08.938Z,5.76
2023-04-09T06:16:36.422Z,5.62
2023-04-09T06:19:03.689Z,5.58
2023-04-09T06:21:32.330Z,5.34
2023-04-09T06:23:59.663Z,5.72
2023-04-09T06:26:27.020Z,5.85
2023-04-09T06:28:54.532Z,5.97
2023-04-09T06:31:21.817Z,6.28
2023-04-09T06:33:49.106Z,6.61
2023-04-09T06:36:16.487Z,7.00
2023-04-09T06:38:45.212Z,7.06
2023-04-09T06:41:12.826Z,7.29
2023-04-09T06:43:40.868Z,7.25
2023-04-09T06:46:08.621Z,7.27
2023-04-09T06:48:35.939Z,7.30
2023-04-09T06:51:03.269Z,7.40
2023-04-09T06:53:30.573Z,7.43
2023-04-09T06:55:59.143Z,7.28
2023-04-09T06:58:26.742Z,7.26
2023-04-09T07:00:54.582Z,7.06
2023-04-09T07:03:22.031Z,7.37
2023-04-09T07:05:49.630Z,7.41
2023-04-09T07:08:16.977Z,7.41
2023-04-09T07:10:44.238Z,7.53
2023-04-09T07:13:12.826Z,7.65
2023-04-09T07:15:41.715Z,7.80
2023-04-09T07:18:09.940Z,7.86
2023-04-09T07:20:37.369Z,8.14
2023-04-09T07:23:04.949Z,8.44
2023-04-09T07:25:32.311Z,8.50
2023-04-09T07:27:59.625Z,8.40
2023-04-09T07:30:28.324Z,8.25
2023-04-09T07:32:56.090Z,8.15
2023-04-09T07:35:23.381Z,8.07
2023-04-09T07:37:50.687Z,8.25
2023-04-09T07:40:17.970Z,8.30
2023-04-09T07:42:45.263Z,8.14
2023-04-09T07:45:12.591Z,8.28
2023-04-09T07:47:42.037Z,8.32
2023-04-09T07:50:09.930Z,8.53
2023-04-09T07:52:37.217Z,8.57
2023-04-09T07:55:04.802Z,8.52
2023-04-09T07:57:32.265Z,8.48
2023-04-09T07:59:59.620Z,8.68
2023-04-09T08:02:27.193Z,8.72
2023-04-09T08:04:56.348Z,8.86
2023-04-09T08:07:24.000Z,8.84
2023-04-09T08:09:51.353Z,9.09
2023-04-09T08:12:18.756Z,9.16
2023-04-09T08:14:46.336Z,9.25
2023-04-09T08:17:13.605Z,9.23
2023-04-09T08:19:42.114Z,9.23
2023-04-09T08:22:11.237Z,9.04
2023-04-09T08:24:40.123Z,9.25
2023-04-09T08:27:07.413Z,9.23
2023-04-09T08:29:34.806Z,9.39
2023-04-09T08:32:02.183Z,9.33
2023-04-09T08:34:29.531Z,9.79
2023-04-09T08:36:56.864Z,9.89
2023-04-09T08:39:26.068Z,10.36
2023-04-09T08:41:53.364Z,10.55
2023-04-09T08:44:22.041Z,10.62
2023-04-09T08:46:49.864Z,10.66
2023-04-09T08:49:17.154Z,10.97
2023-04-09T08:51:46.887Z,11.11
2023-04-09T08:54:15.693Z,10.97
2023-04-09T08:56:44.292Z,10.87
2023-04-09T08:59:11.549Z,11.18
2023-04-09T09:01:38.910Z,11.24
2023-04-09T09:04:07.009Z,11.52
2023-04-09T09:06:35.598Z,11.91
2023-04-09T09:09:04.222Z,12.40
2023-04-09T09:11:31.548Z,11.89
2023-04-09T09:14:01.000Z,11.81
2023-04-09T09:16:28.403Z,11.85
2023-04-09T09:18:56.993Z,11.99
2023-04-09T09:21:24.937Z,12.59
2023-04-09T09:23:52.209Z,12.66
2023-04-09T09:26:20.615Z,12.73
2023-04-09T09:28:49.104Z,12.98
2023-04-09T09:31:18.779Z,12.49
2023-04-09T09:33:46.729Z,12.44
2023-04-09T09:36:14.150Z,12.65
2023-04-09T09:38:57.138Z,12.78
2023-04-09T09:41:24.750Z,13.21
2023-04-09T09:43:52.600Z,13.24
2023-04-09T09:46:21.877Z,13.34
2023-04-09T09:48:49.818Z,13.22
2023-04-09T09:51:17.674Z,13.16
2023-04-09T09:53:47.714Z,12.89
2023-04-09T09:56:17.645Z,13.48
2023-04-09T09:58:48.129Z,14.00
2023-04-09T10:01:18.397Z,14.17
2023-04-09T10:03:47.176Z,14.13
2023-04-09T10:06:15.619Z,14.29
2023-04-09T10:08:43.941Z,14.46
2023-04-09T10:11:12.122Z,14.49
2023-04-09T10:13:40.758Z,13.95
2023-04-09T10:16:08.564Z,13.72
2023-04-09T10:18:36.511Z,14.06
2023-04-09T10:21:10.359Z,14.29
2023-04-09T10:23:43.481Z,14.42
2023-04-09T10:26:11.198Z,14.38
2023-04-09T10:28:39.028Z,14.27
2023-04-09T10:31:06.701Z,14.50
2023-04-09T10:33:34.543Z,13.94
2023-04-09T10:36:04.422Z,13.59
2023-04-09T10:38:37.506Z,13.52
2023-04-09T10:41:13.850Z,13.26
2023-04-09T10:43:41.365Z,13.66
2023-04-09T10:46:10.832Z,13.57
2023-04-09T10:48:38.131Z,13.30
2023-04-09T10:51:07.125Z,13.12
2023-04-09T10:53:34.567Z,13.33
2023-04-09T10:56:15.814Z,13.43
2023-04-09T10:58:43.078Z,13.73
2023-04-09T11:01:10.320Z,13.75
2023-04-09T11:03:45.964Z,14.07
2023-04-09T11:06:17.627Z,14.08
2023-04-09T11:08:45.284Z,14.13
2023-04-09T11:11:13.872Z,14.16
2023-04-09T11:13:41.848Z,14.43
2023-04-09T11:16:09.132Z,14.61
2023-04-09T11:18:37.033Z,14.79
2023-04-09T11:21:04.937Z,14.50
2023-04-09T11:23:32.861Z,13.92
2023-04-09T11:26:01.752Z,14.30
2023-04-09T11:28:30.329Z,14.65
2023-04-09T11:30:57.891Z,14.85
2023-04-09T11:33:32.298Z,14.81
2023-04-09T11:35:59.652Z,14.03
2023-04-09T11:38:27.317Z,14.89
2023-04-09T11:40:58.205Z,15.17
2023-04-09T11:43:25.901Z,14.77
2023-04-09T11:45:56.469Z,15.15
2023-04-09T11:48:24.978Z,15.45
2023-04-09T11:50:52.642Z,15.27
2023-04-09T11:53:20.329Z,15.15
2023-04-09T11:55:50.990Z,14.59
2023-04-09T11:58:18.383Z,14.91
2023-04-09T12:00:46.276Z,14.63
2023-04-09T12:03:16.713Z,14.93
2023-04-09T12:05:50.654Z,15.04
2023-04-09T12:08:23.504Z,14.96
2023-04-09T12:10:53.208Z,14.82
2023-04-09T12:13:21.318Z,14.55
2023-04-09T12:15:49.719Z,14.70
2023-04-09T12:18:18.466Z,14.18
2023-04-09T12:20:49.545Z,14.26
2023-04-09T12:23:17.351Z,14.09
2023-04-09T12:25:45.218Z,14.06
2023-04-09T12:28:13.640Z,13.63
2023-04-09T12:30:41.062Z,13.85
2023-04-09T12:33:10.268Z,14.10
2023-04-09T12:35:39.730Z,14.35
2023-04-09T12:38:07.058Z,14.50
2023-04-09T12:40:34.661Z,14.55
2023-04-09T12:43:02.455Z,14.26
2023-04-09T12:45:30.315Z,14.30
2023-04-09T12:47:58.022Z,14.23
2023-04-09T12:50:25.433Z,14.21
2023-04-09T12:52:54.003Z,14.19
2023-04-09T12:55:22.115Z,14.10
2023-04-09T12:57:50.788Z,14.05
2023-04-09T13:00:18.060Z,14.13
2023-04-09T13:02:45.650Z,14.38
2023-04-09T13:05:13.083Z,14.56
2023-04-09T13:07:42.706Z,14.45
2023-04-09T13:10:11.879Z,14.38
2023-04-09T13:12:39.215Z,14.23
2023-04-09T13:15:07.511Z,14.30
2023-04-09T13:17:34.853Z,14.35
2023-04-09T13:20:02.231Z,14.20
2023-04-09T13:22:29.571Z,14.31
2023-04-09T13:24:57.292Z,14.40
2023-04-09T13:27:25.877Z,14.65
2023-04-09T13:29:53.136Z,14.67
2023-04-09T13:32:21.978Z,14.76
2023-04-09T13:34:49.301Z,15.07
2023-04-09T13:37:16.612Z,15.27
2023-04-09T13:39:44.029Z,15.13
2023-04-09T13:42:14.154Z,15.44
2023-04-09T13:44:45.173Z,15.42
2023-04-09T13:47:13.374Z,15.38
2023-04-09T13:49:41.222Z,15.25
2023-04-09T13:52:08.566Z,15.45
2023-04-09T13:54:36.073Z,15.39
2023-04-09T13:57:03.863Z,15.53
2023-04-09T13:59:31.151Z,15.56
2023-04-09T14:01:59.867Z,15.52
2023-04-09T14:04:27.613Z,15.43
2023-04-09T14:06:54.898Z,15.28
2023-04-09T14:09:22.145Z,15.13
2023-04-09T14:11:49.435Z,14.92
2023-04-09T14:14:16.730Z,14.94
2023-04-09T14:16:44.019Z,15.13
2023-04-09T14:19:12.735Z,15.31
2023-04-09T14:21:41.000Z,15.54
2023-04-09T14:24:08.543Z,15.80
2023-04-09T14:26:35.922Z,15.65
2023-04-09T14:29:03.337Z,15.41
2023-04-09T14:31:30.653Z,15.38
2023-04-09T14:33:57.927Z,15.54
2023-04-09T14:36:27.676Z,15.36
2023-04-09T14:38:57.546Z,15.28
2023-04-09T14:41:25.413Z,15.18
2023-04-09T14:43:52.693Z,15.00
2023-04-09T14:46:20.277Z,15.07
2023-04-09T14:48:47.579Z,14.88
2023-04-09T14:51:14.856Z,15.04
2023-04-09T14:53:43.434Z,14.93
2023-04-09T14:56:10.739Z,14.95
2023-04-09T14:58:37.995Z,14.70
2023-04-09T15:01:05.468Z,14.68
2023-04-09T15:03:32.914Z,14.77
2023-04-09T15:06:00.559Z,14.54
2023-04-09T15:08:27.841Z,14.68
2023-04-09T15:10:56.427Z,14.62
2023-04-09T15:13:24.044Z,14.54
2023-04-09T15:15:51.343Z,14.60
2023-04-09T15:18:21.320Z,14.53
2023-04-09T15:20:49.384Z,14.67
2023-04-09T15:23:16.662Z,14.75
2023-04-09T15:25:43.928Z,14.78
2023-04-09T15:28:12.485Z,15.03
2023-04-09T15:30:40.896Z,14.88
2023-04-09T15:33:08.371Z,15.00
2023-04-09T15:35:36.238Z,15.11
2023-04-09T15:38:03.525Z,15.13
2023-04-09T15:40:31.080Z,15.14
2023-04-09T15:42:58.342Z,15.05
2023-04-09T15:45:30.078Z,15.04
2023-04-09T15:47:57.432Z,15.00
2023-04-09T15:50:24.815Z,15.10
2023-04-09T15:52:52.069Z,14.82
2023-04-09T15:55:19.358Z,14.90
2023-04-09T15:57:46.979Z,15.00
2023-04-09T16:00:15.334Z,15.07
2023-04-09T16:02:44.051Z,15.04
2023-04-09T16:05:11.324Z,15.03
2023-04-09T16:07:39.502Z,14.94
2023-04-09T16:10:07.312Z,14.81
2023-04-09T16:12:34.590Z,14.87
2023-04-09T16:15:02.284Z,14.82
2023-04-09T16:17:31.481Z,14.67
2023-04-09T16:20:03.618Z,14.44
2023-04-09T16:22:31.015Z,14.67
2023-04-09T16:24:58.269Z,14.66
2023-04-09T16:27:25.742Z,14.80
2023-04-09T16:29:53.044Z,14.79
2023-04-09T16:32:20.310Z,14.65
2023-04-09T16:34:47.777Z,14.66
2023-04-09T16:37:16.509Z,14.55
2023-04-09T16:39:43.770Z,14.27
2023-04-09T16:42:12.042Z,14.41
2023-04-09T16:44:39.307Z,14.35
2023-04-09T16:47:08.158Z,14.52
2023-04-09T16:49:35.450Z,14.44
2023-04-09T16:52:02.712Z,14.22
2023-04-09T16:54:31.931Z,14.24
2023-04-09T16:56:59.190Z,14.18
2023-04-09T16:59:26.455Z,14.12
2023-04-09T17:01:53.834Z,14.08
2023-04-09T17:04:21.284Z,14.12
2023-04-09T17:06:48.599Z,14.03
2023-04-09T17:09:16.285Z,13.97
2023-04-09T17:11:45.024Z,14.02
2023-04-09T17:14:12.302Z,13.91
2023-04-09T17:16:39.619Z,13.95
2023-04-09T17:19:08.782Z,14.02
2023-04-09T17:21:36.382Z,13.94
2023-04-09T17:24:03.638Z,14.02
2023-04-09T17:26:31.022Z,13.94
2023-04-09T17:28:59.626Z,13.86
2023-04-09T17:31:27.775Z,13.88
2023-04-09T17:33:55.778Z,13.55
2023-04-09T17:36:23.369Z,13.70
2023-04-09T17:38:52.075Z,13.65
2023-04-09T17:41:21.495Z,13.61
2023-04-09T17:43:48.798Z,13.41
2023-04-09T17:46:18.096Z,13.48
2023-04-09T17:48:45.588Z,13.49
2023-04-09T17:51:14.871Z,13.39
2023-04-09T17:53:42.160Z,13.27
2023-04-09T17:56:10.997Z,13.18
2023-04-09T17:58:38.234Z,13.22
2023-04-09T18:01:07.575Z,13.23
2023-04-09T18:03:36.538Z,13.17
2023-04-09T18:06:04.052Z,13.12
2023-04-09T18:08:31.526Z,12.99
2023-04-09T18:11:11.404Z,12.91
2023-04-09T18:13:40.236Z,12.89
2023-04-09T18:16:09.297Z,12.86
2023-04-09T18:18:37.933Z,13.00
2023-04-09T18:21:06.028Z,13.07
2023-04-09T18:23:33.482Z,12.88
2023-04-09T18:26:00.755Z,12.88
2023-04-09T18:28:28.080Z,12.95
2023-04-09T18:30:55.500Z,12.88
2023-04-09T18:33:22.838Z,12.94
2023-04-09T18:35:51.531Z,12.77
2023-04-09T18:38:18.852Z,12.83
2023-04-09T18:40:46.226Z,12.60
2023-04-09T18:43:13.751Z,12.67
2023-04-09T18:45:41.670Z,12.61
2023-04-09T18:48:09.040Z,12.56
2023-04-09T18:50:36.664Z,12.52
2023-04-09T18:53:06.575Z,12.56
2023-04-09T18:55:35.786Z,12.51
2023-04-09T18:58:03.457Z,12.52
2023-04-09T19:00:31.101Z,12.52
2023-04-09T19:02:58.500Z,12.41
2023-04-09T19:05:26.640Z,12.53
2023-04-09T19:07:58.351Z,12.42
2023-04-09T19:10:27.117Z,12.50
2023-04-09T19:12:54.573Z,12.19
2023-04-09T19:15:22.319Z,12.34
2023-04-09T19:17:49.640Z,12.37
2023-04-09T19:20:17.025Z,12.35
2023-04-09T19:22:46.770Z,12.21
2023-04-09T19:25:14.206Z,12.10
2023-04-09T19:27:42.788Z,12.00
2023-04-09T19:30:10.561Z,11.91
2023-04-09T19:32:38.226Z,12.08
2023-04-09T19:35:07.829Z,12.12
2023-04-09T19:37:35.264Z,11.89
2023-04-09T19:40:04.719Z,11.77
2023-04-09T19:42:32.698Z,11.37
2023-04-09T19:45:01.293Z,11.47
2023-04-09T19:47:29.072Z,11.60
2023-04-09T19:49:57.211Z,11.63
2023-04-09T19:52:24.477Z,11.72
2023-04-09T19:54:54.375Z,11.55
2023-04-09T19:57:24.113Z,11.43
2023-04-09T19:59:52.195Z,11.60
2023-04-09T20:02:21.056Z,11.55
2023-04-09T20:04:48.441Z,11.37
2023-04-09T20:07:16.386Z,11.10
2023-04-09T20:09:43.717Z,10.87
2023-04-09T20:12:11.135Z,11.18
2023-04-09T20:14:39.381Z,10.84
2023-04-09T20:17:08.781Z,10.97
2023-04-09T20:19:37.706Z,11.03
2023-04-09T20:22:05.235Z,11.23
2023-04-09T20:24:33.961Z,11.17
2023-04-09T20:27:01.526Z,11.05
2023-04-09T20:29:28.809Z,10.93
2023-04-09T20:31:56.121Z,10.80
2023-04-09T20:34:26.658Z,10.48
2023-04-09T20:36:55.405Z,10.83
2023-04-09T20:39:24.856Z,10.90
2023-04-09T20:41:52.159Z,10.70
2023-04-09T20:44:19.571Z,10.50
2023-04-09T21:01:19.187Z,9.79
2023-04-09T21:03:46.674Z,10.12
2023-04-09T21:06:14.327Z,10.00
2023-04-09T21:08:43.463Z,9.97
2023-04-09T21:11:10.853Z,10.07
2023-04-09T21:13:53.061Z,10.21
2023-04-09T21:16:23.927Z,9.87
2023-04-09T21:18:51.511Z,9.88
2023-04-09T21:21:19.138Z,10.10
2023-04-09T21:23:46.392Z,10.07
2023-04-09T21:26:14.982Z,10.07
2023-04-09T21:28:42.324Z,10.13
2023-04-09T21:31:10.378Z,10.19
2023-04-09T21:33:39.825Z,10.15
2023-04-09T21:36:08.119Z,9.82
2023-04-09T21:38:35.726Z,9.59
2023-04-09T21:41:03.026Z,9.71
2023-04-09T21:43:30.342Z,9.77
2023-04-09T21:45:58.386Z,10.00
2023-04-09T21:48:26.385Z,10.03
2023-04-09T21:50:55.019Z,9.91
2023-04-09T21:53:22.286Z,9.80
2023-04-09T21:55:49.547Z,10.00
2023-04-09T21:58:16.840Z,9.82
2023-04-09T22:00:44.139Z,9.85
2023-04-09T22:03:11.766Z,9.51
2023-04-09T22:05:39.162Z,9.23
2023-04-09T22:08:08.187Z,9.11
2023-04-09T22:10:35.655Z,9.11
2023-04-09T22:13:03.284Z,8.55
2023-04-09T22:15:30.689Z,8.50
2023-04-09T22:17:58.038Z,8.39
2023-04-09T22:20:26.304Z,8.59
2023-04-09T22:22:54.001Z,8.83
2023-04-09T22:25:22.858Z,8.82
2023-04-09T22:27:53.435Z,8.74
2023-04-09T22:30:23.569Z,8.82
2023-04-09T22:32:51.400Z,8.65
2023-04-09T22:35:18.858Z,8.01
2023-04-09T22:37:46.941Z,7.94
2023-04-09T22:40:15.516Z,8.05
2023-04-09T22:42:45.019Z,8.19
2023-04-09T22:45:12.355Z,7.98
2023-04-09T22:47:39.809Z,7.99
2023-04-09T22:50:07.932Z,8.17
2023-04-09T22:52:35.332Z,7.81
2023-04-09T22:55:02.931Z,7.46
2023-04-09T22:57:30.621Z,7.74
2023-04-09T22:59:59.298Z,7.82
2023-04-09T23:02:27.251Z,7.92
2023-04-09T23:04:54.804Z,7.65
2023-04-09T23:07:22.084Z,7.45
2023-04-09T23:09:49.502Z,7.66
2023-04-09T23:12:16.776Z,7.37
2023-04-09T23:14:44.040Z,7.43
2023-04-09T23:17:12.635Z,7.49
2023-04-09T23:19:39.869Z,7.81
2023-04-09T23:22:07.538Z,7.77
2023-04-09T23:24:34.810Z,7.84
2023-04-09T23:27:03.993Z,7.65
2023-04-09T23:29:31.306Z,7.05
2023-04-09T23:31:58.937Z,7.02
2023-04-09T23:34:27.576Z,7.11
2023-04-09T23:36:54.863Z,6.99
2023-04-09T23:39:22.172Z,7.06
2023-04-09T23:41:49.441Z,7.24
2023-04-09T23:44:16.699Z,7.19
2023-04-09T23:46:43.965Z,6.89
2023-04-09T23:49:11.275Z,6.96
2023-04-09T23:51:39.854Z,6.53
2023-04-09T23:54:07.108Z,6.36
2023-04-09T23:56:34.364Z,6.26
2023-04-09T23:59:01.723Z,6.41
